sensor_id;sensor_type;location;lat;lon;timestamp;P1;durP1;ratioP1;P2;durP2;ratioP2
20314;SDS011;10315;50.958;13.080;2023-07-09T00:01:07;6.50;;;4.70;;
20314;SDS011;10315;50.958;13.080;2023-07-09T00:11:14;10.90;;;4.78;;
20314;SDS011;10315;50.958;13.080;2023-07-09T00:21:18;7.38;;;4.00;;
20314;SDS011;10315;50.958;13.080;2023-07-09T00:31:21;6.38;;;4.78;;
20314;SDS011;10315;50.958;13.080;2023-07-09T00:41:24;5.65;;;4.28;;
20314;SDS011;10315;50.958;13.080;2023-07-09T00:51:28;7.03;;;4.93;;
20314;SDS011;10315;50.958;13.080;2023-07-09T01:01:32;6.53;;;4.47;;
20314;SDS011;10315;50.958;13.080;2023-07-09T01:11:35;7.10;;;4.53;;
20314;SDS011;10315;50.958;13.080;2023-07-09T01:21:39;6.90;;;4.53;;
20314;SDS011;10315;50.958;13.080;2023-07-09T01:31:41;7.72;;;4.82;;
20314;SDS011;10315;50.958;13.080;2023-07-09T01:41:44;5.05;;;3.95;;
20314;SDS011;10315;50.958;13.080;2023-07-09T01:51:47;6.05;;;3.78;;
20314;SDS011;10315;50.958;13.080;2023-07-09T02:01:50;5.32;;;4.47;;
20314;SDS011;10315;50.958;13.080;2023-07-09T02:11:57;6.63;;;4.38;;
20314;SDS011;10315;50.958;13.080;2023-07-09T02:22:00;6.20;;;4.18;;
20314;SDS011;10315;50.958;13.080;2023-07-09T02:32:02;7.38;;;3.78;;
20314;SDS011;10315;50.958;13.080;2023-07-09T02:42:07;9.30;;;4.20;;
20314;SDS011;10315;50.958;13.080;2023-07-09T02:52:10;7.35;;;4.95;;
20314;SDS011;10315;50.958;13.080;2023-07-09T03:02:13;8.02;;;4.55;;
20314;SDS011;10315;50.958;13.080;2023-07-09T03:12:14;6.07;;;4.72;;
20314;SDS011;10315;50.958;13.080;2023-07-09T03:22:17;9.18;;;4.53;;
20314;SDS011;10315;50.958;13.080;2023-07-09T03:32:19;12.50;;;4.97;;
20314;SDS011;10315;50.958;13.080;2023-07-09T03:42:22;6.35;;;4.20;;
20314;SDS011;10315;50.958;13.080;2023-07-09T03:52:23;5.68;;;4.22;;
20314;SDS011;10315;50.958;13.080;2023-07-09T04:02:26;7.18;;;4.63;;
20314;SDS011;10315;50.958;13.080;2023-07-09T04:12:28;8.27;;;4.40;;
20314;SDS011;10315;50.958;13.080;2023-07-09T04:22:31;5.78;;;3.70;;
20314;SDS011;10315;50.958;13.080;2023-07-09T04:32:32;5.88;;;4.05;;
20314;SDS011;10315;50.958;13.080;2023-07-09T04:42:36;6.07;;;4.15;;
20314;SDS011;10315;50.958;13.080;2023-07-09T04:52:39;5.72;;;4.13;;
20314;SDS011;10315;50.958;13.080;2023-07-09T05:02:42;4.95;;;4.00;;
20314;SDS011;10315;50.958;13.080;2023-07-09T05:12:47;5.95;;;3.65;;
20314;SDS011;10315;50.958;13.080;2023-07-09T05:22:51;5.07;;;4.00;;
20314;SDS011;10315;50.958;13.080;2023-07-09T05:32:53;4.85;;;3.67;;
20314;SDS011;10315;50.958;13.080;2023-07-09T05:42:58;4.60;;;3.85;;
20314;SDS011;10315;50.958;13.080;2023-07-09T05:53:00;6.18;;;3.50;;
20314;SDS011;10315;50.958;13.080;2023-07-09T06:03:03;8.10;;;4.10;;
20314;SDS011;10315;50.958;13.080;2023-07-09T06:13:07;5.93;;;3.85;;
20314;SDS011;10315;50.958;13.080;2023-07-09T06:23:10;4.43;;;3.75;;
20314;SDS011;10315;50.958;13.080;2023-07-09T06:33:12;5.55;;;4.10;;
20314;SDS011;10315;50.958;13.080;2023-07-09T06:43:16;3.97;;;3.50;;
20314;SDS011;10315;50.958;13.080;2023-07-09T06:53:19;5.32;;;3.47;;
20314;SDS011;10315;50.958;13.080;2023-07-09T07:03:23;4.80;;;3.55;;
20314;SDS011;10315;50.958;13.080;2023-07-09T07:13:25;3.67;;;3.38;;
20314;SDS011;10315;50.958;13.080;2023-07-09T07:23:28;3.92;;;3.28;;
20314;SDS011;10315;50.958;13.080;2023-07-09T07:33:29;3.65;;;3.45;;
20314;SDS011;10315;50.958;13.080;2023-07-09T07:43:32;4.00;;;3.70;;
20314;SDS011;10315;50.958;13.080;2023-07-09T07:53:34;3.22;;;2.90;;
20314;SDS011;10315;50.958;13.080;2023-07-09T08:03:37;3.53;;;3.33;;
20314;SDS011;10315;50.958;13.080;2023-07-09T08:13:39;3.92;;;3.60;;
20314;SDS011;10315;50.958;13.080;2023-07-09T08:23:41;4.28;;;3.70;;
20314;SDS011;10315;50.958;13.080;2023-07-09T08:33:43;3.92;;;3.58;;
20314;SDS011;10315;50.958;13.080;2023-07-09T08:43:49;3.42;;;3.20;;
20314;SDS011;10315;50.958;13.080;2023-07-09T08:53:58;3.75;;;3.55;;
20314;SDS011;10315;50.958;13.080;2023-07-09T09:04:05;3.65;;;3.45;;
20314;SDS011;10315;50.958;13.080;2023-07-09T09:14:19;3.10;;;2.95;;
20314;SDS011;10315;50.958;13.080;2023-07-09T09:24:31;3.75;;;3.55;;
20314;SDS011;10315;50.958;13.080;2023-07-09T09:34:37;3.78;;;3.42;;
20314;SDS011;10315;50.958;13.080;2023-07-09T09:44:43;3.72;;;3.33;;
20314;SDS011;10315;50.958;13.080;2023-07-09T09:54:48;3.63;;;3.35;;
20314;SDS011;10315;50.958;13.080;2023-07-09T10:04:54;3.55;;;3.33;;
20314;SDS011;10315;50.958;13.080;2023-07-09T10:14:58;4.13;;;3.53;;
20314;SDS011;10315;50.958;13.080;2023-07-09T10:25:05;3.70;;;3.22;;
20314;SDS011;10315;50.958;13.080;2023-07-09T10:35:19;6.05;;;3.65;;
20314;SDS011;10315;50.958;13.080;2023-07-09T10:45:29;4.07;;;3.67;;
20314;SDS011;10315;50.958;13.080;2023-07-09T10:55:38;6.35;;;3.85;;
20314;SDS011;10315;50.958;13.080;2023-07-09T11:05:47;4.28;;;3.30;;
20314;SDS011;10315;50.958;13.080;2023-07-09T11:15:50;4.53;;;3.13;;
20314;SDS011;10315;50.958;13.080;2023-07-09T11:26:09;3.10;;;2.88;;
20314;SDS011;10315;50.958;13.080;2023-07-09T11:36:13;5.53;;;3.80;;
20314;SDS011;10315;50.958;13.080;2023-07-09T11:46:28;4.90;;;3.83;;
20314;SDS011;10315;50.958;13.080;2023-07-09T11:56:29;6.78;;;4.18;;
20314;SDS011;10315;50.958;13.080;2023-07-09T12:06:33;5.75;;;4.00;;
20314;SDS011;10315;50.958;13.080;2023-07-09T12:16:35;6.97;;;4.30;;
20314;SDS011;10315;50.958;13.080;2023-07-09T12:26:40;5.10;;;4.30;;
20314;SDS011;10315;50.958;13.080;2023-07-09T12:36:43;8.23;;;4.38;;
20314;SDS011;10315;50.958;13.080;2023-07-09T12:46:49;6.75;;;4.53;;
20314;SDS011;10315;50.958;13.080;2023-07-09T12:56:52;5.72;;;3.70;;
20314;SDS011;10315;50.958;13.080;2023-07-09T13:06:56;6.50;;;4.15;;
20314;SDS011;10315;50.958;13.080;2023-07-09T13:17:03;5.45;;;4.32;;
20314;SDS011;10315;50.958;13.080;2023-07-09T13:27:08;5.90;;;4.35;;
20314;SDS011;10315;50.958;13.080;2023-07-09T13:37:15;6.63;;;4.30;;
20314;SDS011;10315;50.958;13.080;2023-07-09T13:47:18;5.75;;;4.05;;
20314;SDS011;10315;50.958;13.080;2023-07-09T13:57:21;5.38;;;4.05;;
20314;SDS011;10315;50.958;13.080;2023-07-09T14:07:28;4.72;;;3.63;;
20314;SDS011;10315;50.958;13.080;2023-07-09T14:17:31;7.85;;;4.00;;
20314;SDS011;10315;50.958;13.080;2023-07-09T14:27:34;5.00;;;3.97;;
20314;SDS011;10315;50.958;13.080;2023-07-09T14:37:36;5.55;;;3.90;;
20314;SDS011;10315;50.958;13.080;2023-07-09T14:47:39;5.18;;;3.80;;
20314;SDS011;10315;50.958;13.080;2023-07-09T14:57:40;6.90;;;4.25;;
20314;SDS011;10315;50.958;13.080;2023-07-09T15:07:43;8.15;;;3.80;;
20314;SDS011;10315;50.958;13.080;2023-07-09T15:17:45;5.90;;;4.05;;
20314;SDS011;10315;50.958;13.080;2023-07-09T15:27:49;6.65;;;3.90;;
20314;SDS011;10315;50.958;13.080;2023-07-09T15:37:51;4.97;;;3.90;;
20314;SDS011;10315;50.958;13.080;2023-07-09T15:47:54;5.72;;;4.10;;
20314;SDS011;10315;50.958;13.080;2023-07-09T15:57:56;6.18;;;4.10;;
20314;SDS011;10315;50.958;13.080;2023-07-09T16:07:59;5.18;;;3.75;;
20314;SDS011;10315;50.958;13.080;2023-07-09T16:18:01;6.53;;;4.07;;
20314;SDS011;10315;50.958;13.080;2023-07-09T16:28:07;7.38;;;3.90;;
20314;SDS011;10315;50.958;13.080;2023-07-09T16:38:12;6.78;;;3.92;;
20314;SDS011;10315;50.958;13.080;2023-07-09T16:48:16;6.53;;;4.07;;
20314;SDS011;10315;50.958;13.080;2023-07-09T16:58:24;5.72;;;4.07;;
20314;SDS011;10315;50.958;13.080;2023-07-09T17:08:31;7.05;;;4.32;;
20314;SDS011;10315;50.958;13.080;2023-07-09T17:18:33;7.70;;;3.95;;
20314;SDS011;10315;50.958;13.080;2023-07-09T17:28:36;4.90;;;3.92;;
20314;SDS011;10315;50.958;13.080;2023-07-09T17:38:37;7.38;;;4.63;;
20314;SDS011;10315;50.958;13.080;2023-07-09T17:48:40;6.07;;;3.80;;
20314;SDS011;10315;50.958;13.080;2023-07-09T17:58:42;7.00;;;4.05;;
20314;SDS011;10315;50.958;13.080;2023-07-09T18:08:45;6.57;;;3.90;;
20314;SDS011;10315;50.958;13.080;2023-07-09T18:18:47;8.20;;;4.07;;
20314;SDS011;10315;50.958;13.080;2023-07-09T18:28:50;7.35;;;4.68;;
20314;SDS011;10315;50.958;13.080;2023-07-09T18:38:52;7.10;;;4.28;;
20314;SDS011;10315;50.958;13.080;2023-07-09T18:48:55;9.55;;;4.35;;
20314;SDS011;10315;50.958;13.080;2023-07-09T18:58:56;6.32;;;4.07;;
20314;SDS011;10315;50.958;13.080;2023-07-09T19:08:59;7.10;;;4.35;;
20314;SDS011;10315;50.958;13.080;2023-07-09T19:19:01;7.63;;;4.65;;
20314;SDS011;10315;50.958;13.080;2023-07-09T19:29:04;10.35;;;4.95;;
20314;SDS011;10315;50.958;13.080;2023-07-09T19:39:08;6.80;;;4.00;;
20314;SDS011;10315;50.958;13.080;2023-07-09T19:49:24;10.40;;;4.15;;
20314;SDS011;10315;50.958;13.080;2023-07-09T19:59:26;5.85;;;4.10;;
20314;SDS011;10315;50.958;13.080;2023-07-09T20:09:29;6.07;;;4.38;;
20314;SDS011;10315;50.958;13.080;2023-07-09T20:19:30;4.85;;;3.78;;
20314;SDS011;10315;50.958;13.080;2023-07-09T20:29:35;8.38;;;4.20;;
20314;SDS011;10315;50.958;13.080;2023-07-09T20:39:36;5.82;;;3.90;;
20314;SDS011;10315;50.958;13.080;2023-07-09T20:49:40;6.75;;;4.35;;
20314;SDS011;10315;50.958;13.080;2023-07-09T20:59:42;7.25;;;4.40;;
20314;SDS011;10315;50.958;13.080;2023-07-09T21:09:45;7.68;;;4.68;;
20314;SDS011;10315;50.958;13.080;2023-07-09T21:19:47;5.70;;;4.20;;
20314;SDS011;10315;50.958;13.080;2023-07-09T21:29:49;7.97;;;4.60;;
20314;SDS011;10315;50.958;13.080;2023-07-09T21:39:51;9.57;;;4.18;;
20314;SDS011;10315;50.958;13.080;2023-07-09T21:49:54;8.50;;;4.75;;
20314;SDS011;10315;50.958;13.080;2023-07-09T21:59:56;8.38;;;4.18;;
20314;SDS011;10315;50.958;13.080;2023-07-09T22:10:00;8.23;;;4.05;;
20314;SDS011;10315;50.958;13.080;2023-07-09T22:20:02;7.38;;;4.45;;
20314;SDS011;10315;50.958;13.080;2023-07-09T22:30:07;6.13;;;3.97;;
20314;SDS011;10315;50.958;13.080;2023-07-09T22:40:16;5.75;;;3.60;;
20314;SDS011;10315;50.958;13.080;2023-07-09T22:50:23;5.40;;;4.20;;
20314;SDS011;10315;50.958;13.080;2023-07-09T23:00:28;8.57;;;3.88;;
20314;SDS011;10315;50.958;13.080;2023-07-09T23:10:33;8.05;;;4.38;;
20314;SDS011;10315;50.958;13.080;2023-07-09T23:20:34;9.95;;;4.45;;
20314;SDS011;10315;50.958;13.080;2023-07-09T23:30:37;5.90;;;4.05;;
20314;SDS011;10315;50.958;13.080;2023-07-09T23:40:40;7.07;;;4.10;;
20314;SDS011;10315;50.958;13.080;2023-07-09T23:50:43;6.10;;;4.20;;
